createdAt,value
2023-04-18T00:00:48.770Z,99083.94
2023-04-18T00:03:55.411Z,99076.06
2023-04-18T00:06:59.016Z,99077.72
2023-04-18T00:10:03.474Z,99082.28
2023-04-18T00:13:07.527Z,99076.25
2023-04-18T00:16:13.314Z,99076.25
2023-04-18T00:19:18.900Z,99075.44
2023-04-18T00:22:22.891Z,99077.53
2023-04-18T00:25:26.680Z,99076.69
2023-04-18T00:28:30.375Z,99076.69
2023-04-18T00:31:33.970Z,99074.00
2023-04-18T00:34:40.442Z,99081.66
2023-04-18T00:37:43.931Z,99084.53
2023-04-18T00:40:47.711Z,99079.97
2023-04-18T00:43:51.425Z,99070.06
2023-04-18T00:46:55.161Z,99073.78
2023-04-18T00:50:00.761Z,99070.88
2023-04-18T00:53:05.110Z,99071.72
2023-04-18T00:56:08.920Z,99076.91
2023-04-18T00:59:13.197Z,99074.19
2023-04-18T01:02:17.404Z,99070.69
2023-04-18T01:05:24.668Z,99062.81
2023-04-18T01:08:28.915Z,99061.56
2023-04-18T01:11:36.029Z,99068.00
2023-04-18T01:14:43.421Z,99061.97
2023-04-18T01:17:47.411Z,99068.59
2023-04-18T01:20:54.977Z,99067.56
2023-04-18T01:24:07.742Z,99066.72
2023-04-18T01:27:13.593Z,99064.25
2023-04-18T01:30:17.345Z,99066.09
2023-04-18T01:33:20.963Z,99067.13
2023-04-18T01:36:24.696Z,99060.53
2023-04-18T01:39:30.144Z,99069.63
2023-04-18T01:42:33.901Z,99066.09
2023-04-18T01:45:37.640Z,99065.47
2023-04-18T01:48:41.354Z,99068.34
2023-04-18T01:51:45.078Z,99054.28
2023-04-18T01:54:50.166Z,99063.38
2023-04-18T01:57:56.202Z,99070.22
2023-04-18T02:01:00.015Z,99069.59
2023-04-18T02:04:03.865Z,99055.09
2023-04-18T02:07:07.633Z,99068.34
2023-04-18T02:10:13.964Z,99067.53
2023-04-18T02:13:17.669Z,99069.19
2023-04-18T02:16:21.723Z,99062.16
2023-04-18T02:19:25.739Z,99063.38
2023-04-18T02:22:29.366Z,99068.97
2023-04-18T02:25:34.613Z,99062.13
2023-04-18T02:28:39.200Z,99061.28
2023-04-18T02:31:43.359Z,99071.41
2023-04-18T02:34:47.423Z,99066.03
2023-04-18T02:37:53.505Z,99074.09
2023-04-18T02:40:58.318Z,99063.34
2023-04-18T02:44:03.902Z,99070.78
2023-04-18T02:47:07.828Z,99058.59
2023-04-18T02:50:16.230Z,99066.44
2023-04-18T02:53:19.903Z,99074.72
2023-04-18T02:56:31.054Z,99071.22
2023-04-18T02:59:54.938Z,99065.19
2023-04-18T03:02:58.659Z,99071.81
2023-04-18T03:06:16.768Z,99067.03
2023-04-18T03:09:20.535Z,99073.03
2023-04-18T03:12:31.472Z,99061.25
2023-04-18T03:15:35.424Z,99064.56
2023-04-18T03:18:39.603Z,99069.13
2023-04-18T03:21:43.439Z,99066.22
2023-04-18T03:24:48.732Z,99073.25
2023-04-18T03:27:55.318Z,99069.94
2023-04-18T03:31:00.943Z,99069.31
2023-04-18T03:34:04.999Z,99079.03
2023-04-18T03:37:09.003Z,99077.38
2023-04-18T03:40:19.028Z,99078.41
2023-04-18T03:43:25.840Z,99080.47
2023-04-18T03:46:29.936Z,99092.25
2023-04-18T03:49:35.038Z,99093.91
2023-04-18T03:52:40.561Z,99087.69
2023-04-18T03:55:44.878Z,99092.06
2023-04-18T03:58:53.459Z,99093.91
2023-04-18T04:01:59.053Z,99106.53
2023-04-18T04:05:03.598Z,99104.66
2023-04-18T04:08:07.680Z,99107.53
2023-04-18T04:11:11.867Z,99114.59
2023-04-18T04:14:17.950Z,99125.78
2023-04-18T04:17:23.206Z,99128.66
2023-04-18T04:20:28.649Z,99129.50
2023-04-18T04:23:43.577Z,99132.56
2023-04-18T04:26:52.482Z,99138.78
2023-04-18T04:30:02.555Z,99136.09
2023-04-18T04:33:06.880Z,99142.50
2023-04-18T04:36:15.689Z,99137.75
2023-04-18T04:39:22.183Z,99149.34
2023-04-18T04:42:44.188Z,99143.13
2023-04-18T04:45:57.711Z,99140.66
2023-04-18T04:49:01.953Z,99151.41
2023-04-18T04:52:05.525Z,99144.81
2023-04-18T04:55:09.932Z,99156.38
2023-04-18T04:58:13.496Z,99153.31
2023-04-18T05:01:36.434Z,99168.63
2023-04-18T05:04:40.385Z,99172.38
2023-04-18T05:07:44.181Z,99169.06
2023-04-18T05:10:47.714Z,99160.81
2023-04-18T05:13:51.382Z,99172.59
2023-04-18T05:16:56.768Z,99165.34
2023-04-18T05:20:00.484Z,99179.00
2023-04-18T05:23:04.215Z,99164.53
2023-04-18T05:26:08.204Z,99177.56
2023-04-18T05:29:11.776Z,99178.84
2023-04-18T05:32:18.684Z,99185.72
2023-04-18T05:35:22.307Z,99185.53
2023-04-18T05:38:26.387Z,99188.06
2023-04-18T05:41:30.131Z,99191.78
2023-04-18T05:44:33.877Z,99182.31
2023-04-18T05:47:38.871Z,99179.44
2023-04-18T05:50:42.607Z,99182.97
2023-04-18T05:53:46.455Z,99184.84
2023-04-18T05:56:50.258Z,99186.53
2023-04-18T05:59:53.856Z,99186.56
2023-04-18T06:02:59.187Z,99189.88
2023-04-18T06:06:02.893Z,99181.19
2023-04-18T06:09:06.614Z,99188.06
2023-04-18T06:12:10.253Z,99182.25
2023-04-18T06:15:13.927Z,99183.22
2023-04-18T06:18:19.014Z,99194.63
2023-04-18T06:21:23.356Z,99186.91
2023-04-18T06:24:27.964Z,99189.72
2023-04-18T06:27:32.423Z,99190.91
2023-04-18T06:30:36.586Z,99197.06
2023-04-18T06:33:41.697Z,99202.44
2023-04-18T06:36:45.302Z,99204.75
2023-04-18T06:39:48.992Z,99209.09
2023-04-18T06:42:52.320Z,99199.28
2023-04-18T06:45:56.904Z,99203.16
2023-04-18T06:49:02.193Z,99209.13
2023-04-18T06:52:05.904Z,99212.50
2023-04-18T06:55:10.339Z,99214.38
2023-04-18T06:58:16.269Z,99217.22
2023-04-18T07:01:19.952Z,99212.38
2023-04-18T07:04:25.235Z,99211.75
2023-04-18T07:07:29.255Z,99216.31
2023-04-18T07:10:33.167Z,99213.78
2023-04-18T07:13:36.560Z,99216.66
2023-04-18T07:16:40.314Z,99216.16
2023-04-18T07:19:45.502Z,99219.44
2023-04-18T07:22:50.072Z,99216.19
2023-04-18T07:25:53.625Z,99234.94
2023-04-18T07:28:57.304Z,99228.56
2023-04-18T07:32:00.814Z,99232.56
2023-04-18T07:35:06.808Z,99224.91
2023-04-18T07:38:11.682Z,99224.16
2023-04-18T07:41:15.352Z,99219.28
2023-04-18T07:44:21.440Z,99222.22
2023-04-18T07:47:26.904Z,99227.41
2023-04-18T07:50:33.160Z,99227.19
2023-04-18T07:53:36.816Z,99233.81
2023-04-18T07:56:40.198Z,99229.84
2023-04-18T07:59:43.829Z,99232.06
2023-04-18T08:02:47.546Z,99234.31
2023-04-18T08:05:52.664Z,99236.25
2023-04-18T08:08:57.512Z,99239.06
2023-04-18T08:12:01.308Z,99238.97
2023-04-18T08:15:05.748Z,99240.19
2023-04-18T08:18:09.404Z,99247.81
2023-04-18T08:21:14.381Z,99255.03
2023-04-18T08:24:18.003Z,99261.13
2023-04-18T08:27:21.630Z,99265.63
2023-04-18T08:30:25.797Z,99256.81
2023-04-18T08:33:30.132Z,99263.13
2023-04-18T08:36:36.244Z,99262.91
2023-04-18T08:39:39.840Z,99274.19
2023-04-18T08:42:45.443Z,99268.22
2023-04-18T08:45:49.139Z,99271.63
2023-04-18T08:48:53.630Z,99270.34
2023-04-18T08:52:01.739Z,99271.44
2023-04-18T08:55:06.444Z,99260.97
2023-04-18T08:58:12.574Z,99268.94
2023-04-18T09:01:17.840Z,99271.50
2023-04-18T09:04:37.341Z,99275.63
2023-04-18T09:07:43.961Z,99263.88
2023-04-18T09:10:47.508Z,99264.03
2023-04-18T09:13:51.862Z,99259.66
2023-04-18T09:16:56.385Z,99259.03
2023-04-18T09:20:02.004Z,99268.09
2023-04-18T09:23:11.044Z,99264.25
2023-04-18T09:26:25.184Z,99274.53
2023-04-18T09:29:46.679Z,99270.06
2023-04-18T09:32:59.366Z,99270.06
2023-04-18T09:36:18.942Z,99271.25
2023-04-18T09:39:29.466Z,99261.53
2023-04-18T09:42:38.314Z,99260.59
2023-04-18T09:45:42.035Z,99267.06
2023-04-18T09:48:45.759Z,99263.22
2023-04-18T09:51:52.457Z,99261.69
2023-04-18T09:55:00.355Z,99257.03
2023-04-18T09:58:08.741Z,99247.78
2023-04-18T10:01:13.546Z,99248.56
2023-04-18T10:04:19.194Z,99236.53
2023-04-18T10:07:26.727Z,99242.38
2023-04-18T10:10:31.977Z,99239.66
2023-04-18T10:13:40.616Z,99248.00
2023-04-18T10:16:48.637Z,99251.56
2023-04-18T10:20:08.220Z,99251.50
2023-04-18T10:23:48.730Z,99248.34
2023-04-18T10:26:53.919Z,99242.91
2023-04-18T10:29:57.376Z,99237.06
2023-04-18T10:33:31.137Z,99235.34
2023-04-18T10:36:38.957Z,99233.53
2023-04-18T10:39:58.605Z,99234.94
2023-04-18T10:43:03.516Z,99226.78
2023-04-18T10:46:24.256Z,99231.84
2023-04-18T10:49:34.189Z,99227.34
2023-04-18T10:52:38.172Z,99218.88
2023-04-18T10:55:54.285Z,99224.75
2023-04-18T10:59:04.618Z,99222.50
2023-04-18T11:02:28.849Z,99227.56
2023-04-18T11:05:33.143Z,99219.75
2023-04-18T11:08:36.528Z,99218.31
2023-04-18T11:11:41.469Z,99222.22
2023-04-18T11:14:49.513Z,99219.56
2023-04-18T11:18:02.112Z,99212.00
2023-04-18T11:21:06.278Z,99220.56
2023-04-18T11:24:10.247Z,99215.97
2023-04-18T11:27:14.090Z,99210.84
2023-04-18T11:30:20.116Z,99213.63
2023-04-18T11:33:24.793Z,99212.28
2023-04-18T11:36:28.795Z,99217.34
2023-04-18T11:39:36.548Z,99213.56
2023-04-18T11:42:42.557Z,99201.50
2023-04-18T11:45:57.481Z,99204.50
2023-04-18T11:49:01.255Z,99216.59
2023-04-18T11:52:12.800Z,99203.97
2023-04-18T11:55:21.419Z,99206.72
2023-04-18T11:58:32.979Z,99209.25
2023-04-18T12:01:38.192Z,99206.53
2023-04-18T12:04:56.096Z,99203.84
2023-04-18T12:08:08.386Z,99209.53
2023-04-18T12:11:20.802Z,99198.06
2023-04-18T12:14:24.814Z,99198.91
2023-04-18T12:17:30.144Z,99198.28
2023-04-18T12:20:39.133Z,99203.66
2023-04-18T12:23:42.873Z,99204.19
2023-04-18T12:26:47.126Z,99199.88
2023-04-18T12:29:50.564Z,99197.28
2023-04-18T12:32:58.057Z,99198.16
2023-04-18T12:36:01.442Z,99195.97
2023-04-18T12:39:05.830Z,99205.19
2023-04-18T12:42:09.189Z,99206.94
2023-04-18T12:45:14.572Z,99192.47
2023-04-18T12:48:19.575Z,99204.53
2023-04-18T12:51:23.338Z,99204.91
2023-04-18T12:54:26.690Z,99205.84
2023-04-18T12:57:31.884Z,99201.75
2023-04-18T13:00:35.737Z,99199.66
2023-04-18T13:03:42.136Z,99199.13
2023-04-18T13:06:45.731Z,99198.69
2023-04-18T13:09:50.152Z,99191.03
2023-04-18T13:12:54.398Z,99196.16
2023-04-18T13:15:58.083Z,99187.38
2023-04-18T13:19:02.928Z,99191.56
2023-04-18T13:22:06.867Z,99186.88
2023-04-18T13:25:12.107Z,99190.88
2023-04-18T13:28:15.892Z,99183.56
2023-04-18T13:31:19.422Z,99186.00
2023-04-18T13:34:24.933Z,99186.81
2023-04-18T13:37:28.333Z,99179.22
2023-04-18T13:40:33.615Z,99178.41
2023-04-18T13:43:37.072Z,99181.13
2023-04-18T13:46:41.449Z,99179.28
2023-04-18T13:49:46.250Z,99178.78
2023-04-18T13:52:52.029Z,99186.03
2023-04-18T13:55:55.808Z,99178.78
2023-04-18T13:58:59.806Z,99173.13
2023-04-18T14:02:03.360Z,99164.09
2023-04-18T14:05:10.113Z,99157.41
2023-04-18T14:08:14.229Z,99165.25
2023-04-18T14:11:18.389Z,99164.53
2023-04-18T14:14:21.820Z,99171.75
2023-04-18T14:17:25.866Z,99171.16
2023-04-18T14:20:34.368Z,99169.56
2023-04-18T14:23:38.335Z,99156.06
2023-04-18T14:26:41.841Z,99155.50
2023-04-18T14:29:45.666Z,99159.50
2023-04-18T14:32:49.029Z,99160.97
2023-04-18T14:35:54.326Z,99152.34
2023-04-18T14:38:57.772Z,99158.50
2023-04-18T14:42:01.864Z,99159.69
2023-04-18T14:45:06.395Z,99164.75
2023-04-18T14:48:10.592Z,99162.50
2023-04-18T14:51:16.837Z,99167.38
2023-04-18T14:54:20.868Z,99166.81
2023-04-18T14:57:25.002Z,99160.03
2023-04-18T15:00:29.492Z,99157.59
2023-04-18T15:03:33.972Z,99156.19
2023-04-18T15:06:39.234Z,99155.75
2023-04-18T15:09:42.620Z,99158.00
2023-04-18T15:12:47.670Z,99157.47
2023-04-18T15:15:55.372Z,99147.88
2023-04-18T15:19:00.475Z,99156.34
2023-04-18T15:22:05.347Z,99158.72
2023-04-18T15:25:10.013Z,99156.50
2023-04-18T15:28:14.322Z,99159.56
2023-04-18T15:31:18.335Z,99160.97
2023-04-18T15:34:21.841Z,99158.97
2023-04-18T15:37:27.592Z,99165.47
2023-04-18T15:40:32.935Z,99163.66
2023-04-18T15:43:36.960Z,99169.03
2023-04-18T15:46:40.993Z,99173.03
2023-04-18T15:49:45.157Z,99169.28
2023-04-18T15:52:49.930Z,99170.28
2023-04-18T15:55:54.090Z,99167.94
2023-04-18T15:58:58.723Z,99172.13
2023-04-18T16:02:03.014Z,99174.53
2023-04-18T16:05:08.487Z,99185.81
2023-04-18T16:08:14.274Z,99172.59
2023-04-18T16:11:19.704Z,99160.50
2023-04-18T16:14:23.604Z,99164.44
2023-04-18T16:17:27.028Z,99171.44
2023-04-18T16:20:33.344Z,99168.25
2023-04-18T16:23:38.506Z,99168.13
2023-04-18T16:26:42.369Z,99166.91
2023-04-18T16:29:46.101Z,99173.84
2023-04-18T16:32:49.937Z,99168.03
2023-04-18T16:35:57.766Z,99177.22
2023-04-18T16:39:04.637Z,99174.28
2023-04-18T16:42:08.038Z,99177.22
2023-04-18T16:45:11.938Z,99170.19
2023-04-18T16:48:15.403Z,99169.09
2023-04-18T16:51:19.368Z,99172.06
2023-04-18T16:54:24.209Z,99174.75
2023-04-18T16:57:28.131Z,99168.75
2023-04-18T17:00:31.639Z,99165.22
2023-04-18T17:03:36.578Z,99160.63
2023-04-18T17:06:42.141Z,99165.22
2023-04-18T17:09:48.014Z,99167.69
2023-04-18T17:12:51.506Z,99162.69
2023-04-18T17:15:55.351Z,99158.94
2023-04-18T17:18:58.871Z,99162.69
2023-04-18T17:22:03.667Z,99162.09
2023-04-18T17:25:09.740Z,99161.25
2023-04-18T17:28:14.020Z,99162.09
2023-04-18T17:31:17.551Z,99160.44
2023-04-18T17:34:21.436Z,99156.06
2023-04-18T17:37:25.084Z,99162.75
2023-04-18T17:40:30.324Z,99159.09
2023-04-18T17:43:33.798Z,99164.97
2023-04-18T17:46:37.785Z,99152.91
2023-04-18T17:49:41.294Z,99154.22
2023-04-18T17:52:46.395Z,99156.53
2023-04-18T17:55:52.334Z,99159.91
2023-04-18T17:58:56.774Z,99166.59
2023-04-18T18:02:00.356Z,99166.81
2023-04-18T18:05:05.268Z,99169.78
2023-04-18T18:08:09.133Z,99160.84
2023-04-18T18:11:14.320Z,99157.53
2023-04-18T18:14:17.819Z,99154.44
2023-04-18T18:17:22.077Z,99162.16
2023-04-18T18:20:27.346Z,99156.97
2023-04-18T18:23:31.702Z,99151.00
2023-04-18T18:26:37.553Z,99154.53
2023-04-18T18:29:41.594Z,99161.81
2023-04-18T18:32:45.051Z,99164.13
2023-04-18T18:35:48.931Z,99156.66
2023-04-18T18:38:52.360Z,99154.66
2023-04-18T18:41:58.546Z,99157.59
2023-04-18T18:45:01.975Z,99153.00
2023-04-18T18:48:07.673Z,99160.28
2023-04-18T18:51:11.600Z,99159.25
2023-04-18T18:54:15.955Z,99158.63
2023-04-18T18:57:20.786Z,99155.94
2023-04-18T19:00:24.972Z,99149.09
2023-04-18T19:03:28.497Z,99148.03
2023-04-18T19:06:32.615Z,99143.88
2023-04-18T19:09:36.951Z,99140.56
2023-04-18T19:12:42.110Z,99139.53
2023-04-18T19:15:45.532Z,99136.22
2023-04-18T19:18:50.792Z,99135.59
2023-04-18T19:21:54.261Z,99131.09
2023-04-18T19:25:00.598Z,99134.63
2023-04-18T19:28:06.035Z,99125.69
2023-04-18T19:31:10.530Z,99129.44
2023-04-18T19:34:14.036Z,99121.56
2023-04-18T19:37:18.032Z,99125.31
2023-04-18T19:40:23.628Z,99127.78
2023-04-18T19:43:29.125Z,99121.56
2023-04-18T19:46:32.574Z,99126.34
2023-04-18T19:49:36.598Z,99109.75
2023-04-18T19:52:40.176Z,99118.31
2023-04-18T19:55:46.161Z,99112.09
2023-04-18T19:58:51.080Z,99107.94
2023-04-18T20:01:55.172Z,99118.75
2023-04-18T20:04:58.711Z,99098.38
2023-04-18T20:08:03.300Z,99111.31
2023-04-18T20:11:10.058Z,99102.84
2023-04-18T20:14:15.318Z,99101.16
2023-04-18T20:17:19.127Z,99095.97
2023-04-18T20:20:23.630Z,99103.28
2023-04-18T20:23:27.106Z,99092.91
2023-04-18T20:26:31.300Z,99092.28
2023-04-18T20:29:36.623Z,99096.84
2023-04-18T20:32:40.455Z,99084.81
2023-04-18T20:35:46.716Z,99084.03
2023-04-18T20:38:50.572Z,99078.22
2023-04-18T20:41:57.584Z,99076.78
2023-04-18T20:45:03.108Z,99074.75
2023-04-18T20:48:07.484Z,99076.00
2023-04-18T20:51:11.248Z,99065.66
2023-04-18T20:54:15.095Z,99072.94
2023-04-18T20:57:20.403Z,99066.94
2023-04-18T21:00:25.878Z,99068.19
2023-04-18T21:03:29.767Z,99061.31
2023-04-18T21:06:33.356Z,99066.94
2023-04-18T21:09:37.673Z,99060.94
2023-04-18T21:12:41.409Z,99049.75
2023-04-18T21:15:46.796Z,99043.75
2023-04-18T21:18:50.317Z,99046.88
2023-04-18T21:21:54.085Z,99049.78
2023-04-18T21:24:57.869Z,99043.19
2023-04-18T21:28:01.853Z,99034.47
2023-04-18T21:31:06.910Z,99039.06
2023-04-18T21:34:11.407Z,99030.13
2023-04-18T21:37:14.943Z,99025.16
2023-04-18T21:40:18.815Z,99031.59
2023-04-18T21:43:22.233Z,99024.53
2023-04-18T21:46:27.542Z,99022.28
2023-04-18T21:49:30.998Z,99024.63
2023-04-18T21:52:34.952Z,99028.13
2023-04-18T21:55:38.431Z,99023.78
2023-04-18T21:58:42.295Z,99016.72
2023-04-18T22:01:47.205Z,99018.81
2023-04-18T22:04:50.868Z,99025.25
2023-04-18T22:07:58.414Z,99010.53
2023-04-18T22:11:02.955Z,99009.78
2023-04-18T22:14:06.583Z,99010.19
2023-04-18T22:17:11.628Z,99009.59
2023-04-18T22:20:15.182Z,99006.75
2023-04-18T22:23:18.800Z,99002.19
2023-04-18T22:26:22.342Z,98999.94
2023-04-18T22:29:26.028Z,98993.94
2023-04-18T22:32:30.938Z,98985.84
2023-04-18T22:35:34.665Z,98985.84
2023-04-18T22:38:38.262Z,98975.28
2023-04-18T22:41:42.049Z,98980.88
2023-04-18T22:44:45.458Z,98977.78
2023-04-18T22:47:50.828Z,98973.44
2023-04-18T22:50:54.256Z,98977.16
2023-04-18T22:53:58.234Z,98977.59
2023-04-18T22:57:02.124Z,98968.91
2023-04-18T23:00:07.595Z,98965.81
2023-04-18T23:03:12.556Z,98967.28
2023-04-18T23:06:17.523Z,98954.69
2023-04-18T23:09:21.114Z,98960.13
2023-04-18T23:12:25.414Z,98949.97
2023-04-18T23:15:28.956Z,98948.16
2023-04-18T23:18:34.071Z,98942.56
2023-04-18T23:21:37.522Z,98939.72
2023-04-18T23:24:41.536Z,98928.91
2023-04-18T23:27:44.971Z,98929.75
2023-04-18T23:30:50.169Z,98921.03
2023-04-18T23:33:56.347Z,98922.09
2023-04-18T23:37:00.241Z,98920.22
2023-04-18T23:40:06.711Z,98909.44
2023-04-18T23:43:10.592Z,98915.88
2023-04-18T23:46:14.130Z,98909.44
2023-04-18T23:49:19.602Z,98907.56
2023-04-18T23:52:23.448Z,98898.66
2023-04-18T23:55:27.275Z,98896.16
2023-04-18T23:58:31.713Z,98894.50
